Benson, Louisiana
Current Conditions -  °F | °C
As of 4:35 PM on Monday 22 Dec 2014 (Local Time) from KIER Reporting Station
Broken Clouds Broken Clouds  
Wind Chill: 69°   Ceiling: 3900
Heat Index: 69°   Visibility: 10mi
Dew Point: 63°   Wind: 0mph
Humidity: 79%   Direction: NA
Pressure: 29.59"   Gusts: NA
Location:  31.7915°N, 93.7011°W
Report Text: KIER 222235Z AUTO 00000KT 10SM SCT031 BKN039 BKN046 21/17 A2959 RMK AO2 T02070170
Loading
Personal Weather Stations






























Interactive Weather Map New forecast layout! Learn more

10-Day Weather Forecast

Advertisements
Track Severe Weather on mobile